Rockville, IN (47872)

2:24 PM EST on December 08, 2016 (GMT -0500)
KINROCKV2 | | Change Station

Elev 702 ft 39.77 °N, 87.22 °W | Updated 17 seconds ago

Overcast
Overcast
23.9 °F
Feels Like 18 °F
N
5.0
Wind Variable Wind from West
Gusts 19.0 mph

Today
High -- | Low -- °F
--% Chance of Precip.
Yesterday
High -- | Low -- °F
Precip. -- in
Pressure 30.42 in
Visibility 10.0 miles
Clouds Overcast 2600 ft
Windchill 18 °F
Dew Point 19 °F
Humidity 80%
Rainfall 0.00 in
Snow Depth Not available.
7:57 AM 5:24 PM
Waxing Gibbous, 66% visible
METAR KHUF 081853Z 28010KT 10SM OVC026 M04/M10 A3040 RMK AO2 SLP301 T10441100
Pressure 30.42 in
Visibility 10.0 miles
Clouds Overcast 2600 ft
Windchill 18 °F
Dew Point 19 °F
Humidity 80%
Rainfall 0.00 in
Snow Depth Not available.
7:57 AM 5:24 PM
Waxing Gibbous, 66% visible
METAR KHUF 081853Z 28010KT 10SM OVC026 M04/M10 A3040 RMK AO2 SLP301 T10441100

10-Day Weather Forecast

Almanac

Astronomy

Dec. 08, 2016 Rise Set
Actual Time
Civil Twilight
Nautical Twilight
Astronomical Twilight
Moon
Length of Visible Light
Length of Day
Tomorrow will be .
, % of the Moon is Illuminated

Today's Extremes

State Highs State Lows

Community

WunderPhotos

Upload Photos

1,956,277 photos uploaded!

WunderBlog® & News

Nearby

Air Quality

  Air Quality AQ Index Pollutant
Not available.

Snow Depth

Station Depth Elevation

Earthquake Activity

City Distance Mag. Time & Date
Minimum magnitude displayed is 2.5.

Coastal Water Temperatures

Place Temperature

Stations

Nearby Weather Stations

Station Location Temp. Windchill Dew Point Humidity Wind Precip. Elev Updated Type
                   

Watches & Warnings

There are currently no watches in effect.